createdAt,value
2018-01-03T00:02:11.957Z,96954.88
2018-01-03T00:04:39.497Z,96965.67
2018-01-03T00:07:07.960Z,96938.52
2018-01-03T00:09:37.385Z,96922.05
2018-01-03T00:12:07.543Z,96917.14
2018-01-03T00:14:36.044Z,96917.87
2018-01-03T00:17:03.674Z,96921.43
2018-01-03T00:19:32.276Z,96914.02
2018-01-03T00:21:59.885Z,96909.03
2018-01-03T00:24:27.428Z,96903.91
2018-01-03T00:26:55.963Z,96904.77
2018-01-03T00:29:23.459Z,96894.83
2018-01-03T00:31:51.893Z,96886.91
2018-01-03T00:34:20.258Z,96891.22
2018-01-03T00:36:47.994Z,96879.72
2018-01-03T00:39:16.634Z,96870.30
2018-01-03T00:41:44.144Z,96868.20
2018-01-03T00:44:11.705Z,96875.67
2018-01-03T00:46:39.690Z,96867.68
2018-01-03T00:49:08.301Z,96853.80
2018-01-03T00:51:35.880Z,96854.23
2018-01-03T00:54:03.498Z,96843.78
2018-01-03T00:56:31.047Z,96837.50
2018-01-03T00:58:58.881Z,96823.02
2018-01-03T01:01:26.575Z,96819.52
2018-01-03T01:03:54.139Z,96801.76
2018-01-03T01:06:21.818Z,96786.23
2018-01-03T01:08:49.417Z,96788.06
2018-01-03T01:11:17.090Z,96794.34
2018-01-03T01:13:44.726Z,96797.36
2018-01-03T01:16:12.226Z,96796.59
2018-01-03T01:18:43.612Z,96779.31
2018-01-03T01:21:11.204Z,96780.47
2018-01-03T01:23:39.708Z,96769.95
2018-01-03T01:26:07.282Z,96767.53
2018-01-03T01:28:35.032Z,96770.94
2018-01-03T01:31:03.124Z,96780.09
2018-01-03T01:33:30.976Z,96771.02
2018-01-03T01:35:58.517Z,96768.56
2018-01-03T01:38:26.097Z,96766.44
2018-01-03T01:40:53.628Z,96747.83
2018-01-03T01:43:21.130Z,96746.39
2018-01-03T01:45:48.641Z,96735.30
2018-01-03T01:48:16.183Z,96738.70
2018-01-03T01:50:43.713Z,96729.09
2018-01-03T01:53:12.620Z,96725.55
2018-01-03T01:55:41.017Z,96725.27
2018-01-03T01:58:10.443Z,96707.63
2018-01-03T02:00:40.053Z,96671.13
2018-01-03T02:03:07.648Z,96666.57
2018-01-03T02:05:35.729Z,96670.89
2018-01-03T02:08:03.340Z,96678.87
2018-01-03T02:10:30.840Z,96675.79
2018-01-03T02:12:58.585Z,96664.89
2018-01-03T02:15:26.180Z,96668.38
2018-01-03T02:17:53.696Z,96636.36
2018-01-03T02:20:21.250Z,96671.63
2018-01-03T02:22:48.749Z,96661.99
2018-01-03T02:25:16.444Z,96630.00
2018-01-03T02:27:43.989Z,96614.48
2018-01-03T02:30:12.219Z,96621.82
2018-01-03T02:32:39.749Z,96614.09
2018-01-03T02:35:07.364Z,96598.45
2018-01-03T02:37:34.889Z,96593.45
2018-01-03T02:40:03.408Z,96585.27
2018-01-03T02:42:31.566Z,96568.81
2018-01-03T02:44:59.105Z,96559.02
2018-01-03T02:47:28.764Z,96550.05
2018-01-03T02:49:56.292Z,96523.66
2018-01-03T02:52:25.040Z,96506.17
2018-01-03T02:54:53.092Z,96476.61
2018-01-03T02:57:21.266Z,96455.78
2018-01-03T02:59:49.644Z,96452.36
2018-01-03T03:02:17.161Z,96448.93
2018-01-03T03:04:45.639Z,96446.75
2018-01-03T03:07:14.499Z,96439.38
2018-01-03T03:09:43.780Z,96437.66
2018-01-03T03:12:11.330Z,96427.59
2018-01-03T03:14:38.853Z,96416.11
2018-01-03T03:17:06.424Z,96383.25
2018-01-03T03:19:34.005Z,96377.00
2018-01-03T03:22:02.609Z,96376.97
2018-01-03T03:24:30.982Z,96370.54
2018-01-03T03:26:59.097Z,96368.84
2018-01-03T03:29:26.914Z,96348.84
2018-01-03T03:31:54.531Z,96322.88
2018-01-03T03:34:22.294Z,96313.20
2018-01-03T03:36:49.826Z,96301.31
2018-01-03T03:39:17.370Z,96270.98
2018-01-03T03:41:49.078Z,96259.88
2018-01-03T03:44:16.568Z,96227.60
2018-01-03T03:46:44.811Z,96224.22
2018-01-03T03:49:12.428Z,96235.81
2018-01-03T03:51:40.733Z,96222.42
2018-01-03T03:54:09.162Z,96204.53
2018-01-03T03:56:36.640Z,96188.50
2018-01-03T03:59:04.320Z,96157.63
2018-01-03T04:01:31.907Z,96170.16
2018-01-03T04:03:59.506Z,96173.23
2018-01-03T04:06:27.051Z,96157.04
2018-01-03T04:08:54.669Z,96150.19
2018-01-03T04:11:22.960Z,96134.25
2018-01-03T04:13:51.112Z,96134.86
2018-01-03T04:16:18.694Z,96121.05
2018-01-03T04:18:46.939Z,96107.16
2018-01-03T04:21:15.601Z,96107.31
2018-01-03T04:23:43.191Z,96085.22
2018-01-03T04:26:10.849Z,96092.40
2018-01-03T04:28:39.343Z,96087.66
2018-01-03T04:31:07.280Z,96071.08
2018-01-03T04:33:34.839Z,96039.27
2018-01-03T04:36:02.757Z,96018.61
2018-01-03T04:38:30.349Z,95991.30
2018-01-03T04:40:57.867Z,96002.25
2018-01-03T04:43:29.706Z,95990.45
2018-01-03T04:45:58.555Z,95967.52
2018-01-03T04:48:27.067Z,95971.69
2018-01-03T04:50:54.637Z,95959.05
2018-01-03T04:53:22.195Z,95924.01
2018-01-03T04:55:49.734Z,95922.27
2018-01-03T04:58:18.108Z,95919.39
2018-01-03T05:00:47.126Z,95912.78
2018-01-03T05:03:14.651Z,95921.98
2018-01-03T05:05:42.123Z,95895.27
2018-01-03T05:08:09.704Z,95888.50
2018-01-03T05:10:37.277Z,95896.59
2018-01-03T05:13:05.327Z,95889.75
2018-01-03T05:15:32.829Z,95866.46
2018-01-03T05:18:01.427Z,95860.50
2018-01-03T05:20:30.023Z,95863.19
2018-01-03T05:22:57.632Z,95830.50
2018-01-03T05:25:25.239Z,95799.33
2018-01-03T05:27:52.760Z,95792.20
2018-01-03T05:30:21.031Z,95778.64
2018-01-03T05:32:49.223Z,95764.11
2018-01-03T05:35:18.349Z,95714.26
2018-01-03T05:37:46.061Z,95697.11
2018-01-03T05:40:13.871Z,95698.10
2018-01-03T05:42:42.243Z,95681.25
2018-01-03T05:45:09.818Z,95673.16
2018-01-03T05:47:37.390Z,95653.46
2018-01-03T05:50:05.053Z,95650.06
2018-01-03T05:52:32.571Z,95639.64
2018-01-03T05:55:00.129Z,95604.34
2018-01-03T05:57:28.607Z,95603.34
2018-01-03T05:59:57.807Z,95600.06
2018-01-03T06:02:26.782Z,95564.37
2018-01-03T06:04:55.243Z,95555.00
2018-01-03T06:07:22.806Z,95569.12
2018-01-03T06:09:50.805Z,95556.81
2018-01-03T06:12:18.432Z,95555.02
2018-01-03T06:14:51.046Z,95548.92
2018-01-03T06:17:18.876Z,95570.37
2018-01-03T06:19:46.417Z,95560.80
2018-01-03T06:22:14.036Z,95496.98
2018-01-03T06:24:42.629Z,95482.11
2018-01-03T06:27:10.784Z,95523.36
2018-01-03T06:29:38.445Z,95519.20
2018-01-03T06:32:06.043Z,95504.48
2018-01-03T06:34:33.621Z,95466.45
2018-01-03T06:37:02.220Z,95495.92
2018-01-03T06:39:29.684Z,95463.98
2018-01-03T06:41:57.269Z,95451.24
2018-01-03T06:44:25.236Z,95469.59
2018-01-03T06:46:53.836Z,95427.41
2018-01-03T06:49:22.087Z,95428.22
2018-01-03T06:51:49.550Z,95448.84
2018-01-03T06:54:17.138Z,95480.34
2018-01-03T06:56:44.639Z,95460.77
2018-01-03T06:59:12.135Z,95456.61
2018-01-03T07:01:39.689Z,95450.84
2018-01-03T07:04:07.256Z,95456.28
2018-01-03T07:06:35.984Z,95466.84
2018-01-03T07:09:03.474Z,95456.67
2018-01-03T07:11:31.078Z,95454.36
2018-01-03T07:13:59.680Z,95419.34
2018-01-03T07:16:27.212Z,95461.91
2018-01-03T07:18:54.765Z,95474.66
2018-01-03T07:21:23.343Z,95426.69
2018-01-03T07:23:50.848Z,95414.09
2018-01-03T07:26:21.476Z,95391.02
2018-01-03T07:28:53.805Z,95377.62
2018-01-03T07:31:21.302Z,95399.94
2018-01-03T07:33:48.752Z,95415.54
2018-01-03T07:36:16.512Z,95427.47
2018-01-03T07:38:43.968Z,95447.55
2018-01-03T07:41:11.861Z,95501.60
2018-01-03T07:43:41.357Z,95709.70
2018-01-03T07:46:08.834Z,95682.21
2018-01-03T07:48:36.315Z,95672.98
2018-01-03T07:51:03.845Z,95673.16
2018-01-03T07:53:31.378Z,95690.23
2018-01-03T07:55:59.235Z,95681.56
2018-01-03T07:58:26.959Z,95697.35
2018-01-03T08:00:54.594Z,95692.23
2018-01-03T08:03:22.047Z,95689.81
2018-01-03T08:05:49.596Z,95694.14
2018-01-03T08:08:17.131Z,95716.81
2018-01-03T08:10:45.625Z,95698.70
2018-01-03T08:13:13.106Z,95687.22
2018-01-03T08:15:40.812Z,95674.13
2018-01-03T08:18:08.292Z,95666.81
2018-01-03T08:20:35.984Z,95634.97
2018-01-03T08:23:03.484Z,95688.67
2018-01-03T08:25:31.181Z,95688.01
2018-01-03T08:27:58.653Z,95726.46
2018-01-03T08:30:27.451Z,95751.34
2018-01-03T08:32:55.880Z,95725.16
2018-01-03T08:35:27.765Z,95727.09
2018-01-03T08:37:57.824Z,95696.53
2018-01-03T08:40:26.522Z,95690.63
2018-01-03T08:42:56.565Z,95697.39
2018-01-03T08:45:24.314Z,95702.50
2018-01-03T08:47:52.893Z,95721.27
2018-01-03T08:50:20.595Z,95728.46
2018-01-03T08:52:48.484Z,95744.31
2018-01-03T08:55:17.101Z,95737.87
2018-01-03T08:57:44.577Z,95752.45
2018-01-03T09:00:12.359Z,95748.72
2018-01-03T09:02:43.233Z,95756.20
2018-01-03T09:05:11.529Z,95728.35
2018-01-03T09:07:39.342Z,95720.71
2018-01-03T09:10:08.169Z,95685.19
2018-01-03T09:12:36.011Z,95677.56
2018-01-03T09:17:50.358Z,95669.48
2018-01-03T09:20:18.392Z,95668.68
2018-01-03T09:34:37.806Z,95682.41
2018-01-03T09:37:08.776Z,95740.66
2018-01-03T09:42:19.807Z,95790.04
2018-01-03T09:44:47.351Z,95761.39
2018-01-03T09:47:14.853Z,95803.30
2018-01-03T09:49:43.006Z,95844.70
2018-01-03T09:52:10.657Z,95814.17
2018-01-03T09:54:38.242Z,95815.98
2018-01-03T09:57:05.918Z,95829.47
2018-01-03T09:59:33.518Z,95800.87
2018-01-03T10:02:01.087Z,95821.20
2018-01-03T10:04:29.246Z,95825.62
2018-01-03T10:06:56.865Z,95822.39
2018-01-03T10:09:24.438Z,95871.33
2018-01-03T10:11:52.057Z,95901.17
2018-01-03T10:14:19.577Z,95902.03
2018-01-03T10:16:47.114Z,95913.27
2018-01-03T10:19:14.975Z,95941.93
2018-01-03T10:21:42.669Z,95962.18
2018-01-03T10:24:11.065Z,95963.76
2018-01-03T10:26:40.130Z,95942.41
2018-01-03T10:29:07.821Z,95957.36
2018-01-03T10:34:27.119Z,95990.83
2018-01-03T10:39:42.876Z,95976.09
2018-01-03T11:00:50.654Z,96056.42
2018-01-03T11:03:30.788Z,96052.34
2018-01-03T11:05:58.744Z,96052.37
2018-01-03T11:08:26.504Z,96060.53
2018-01-03T11:10:55.359Z,96055.50
2018-01-03T11:13:23.000Z,96050.95
2018-01-03T11:15:50.735Z,96068.05
2018-01-03T11:18:18.705Z,96057.97
2018-01-03T11:20:46.597Z,96034.32
2018-01-03T11:23:14.309Z,96025.92
2018-01-03T11:25:41.866Z,96014.20
2018-01-03T11:30:58.122Z,96068.44
2018-01-03T11:36:22.061Z,96060.31
2018-01-03T11:41:37.450Z,96078.75
2018-01-03T11:44:12.875Z,96084.94
2018-01-03T11:46:40.430Z,96095.97
2018-01-03T11:49:08.012Z,96121.25
2018-01-03T11:57:26.380Z,96179.14
2018-01-03T11:59:55.234Z,96187.00
2018-01-03T12:02:30.013Z,96199.92
2018-01-03T12:04:57.591Z,96200.66
2018-01-03T12:07:25.332Z,96234.29
2018-01-03T12:09:52.949Z,96238.08
2018-01-03T12:12:20.564Z,96239.86
2018-01-03T12:14:48.380Z,96238.90
2018-01-03T12:17:19.558Z,96241.89
2018-01-03T12:19:47.154Z,96242.58
2018-01-03T12:22:14.814Z,96217.66
2018-01-03T12:24:47.091Z,96219.37
2018-01-03T12:27:15.180Z,96206.81
2018-01-03T12:29:58.087Z,96217.44
2018-01-03T12:32:25.603Z,96234.47
2018-01-03T12:34:53.165Z,96254.06
2018-01-03T12:37:21.618Z,96227.45
2018-01-03T12:39:49.234Z,96235.95
2018-01-03T12:42:16.999Z,96233.37
2018-01-03T12:44:44.774Z,96232.47
2018-01-03T12:47:12.676Z,96229.09
2018-01-03T12:49:40.334Z,96246.86
2018-01-03T12:52:07.988Z,96249.63
2018-01-03T12:54:35.478Z,96249.44
2018-01-03T12:57:03.990Z,96254.41
2018-01-03T12:59:31.639Z,96273.16
2018-01-03T13:02:11.646Z,96285.14
2018-01-03T13:04:48.565Z,96289.20
2018-01-03T13:07:27.692Z,96293.02
2018-01-03T13:09:55.208Z,96296.09
2018-01-03T13:12:22.785Z,96280.48
2018-01-03T13:14:50.285Z,96281.76
2018-01-03T13:17:17.839Z,96296.58
2018-01-03T13:19:45.402Z,96315.33
2018-01-03T13:22:13.047Z,96329.85
2018-01-03T13:24:40.879Z,96326.18
2018-01-03T13:27:08.400Z,96329.72
2018-01-03T13:29:36.473Z,96336.45
2018-01-03T13:32:05.187Z,96321.79
2018-01-03T13:34:32.986Z,96324.72
2018-01-03T13:37:00.428Z,96355.03
2018-01-03T13:39:27.944Z,96351.30
2018-01-03T13:41:59.238Z,96363.14
2018-01-03T13:44:26.734Z,96356.80
2018-01-03T13:46:54.513Z,96353.25
2018-01-03T13:49:22.105Z,96366.33
2018-01-03T13:51:49.792Z,96378.27
2018-01-03T13:54:19.185Z,96386.14
2018-01-03T13:56:53.963Z,96376.67
2018-01-03T14:02:22.369Z,96396.89
2018-01-03T14:04:50.070Z,96404.20
2018-01-03T14:07:17.600Z,96409.27
2018-01-03T14:09:56.548Z,96424.42
2018-01-03T14:12:24.250Z,96448.41
2018-01-03T14:15:02.335Z,96459.36
2018-01-03T14:17:30.027Z,96461.70
2018-01-03T14:19:57.643Z,96447.84
2018-01-03T14:22:25.179Z,96441.25
2018-01-03T14:24:52.785Z,96438.68
2018-01-03T14:27:21.526Z,96437.56
2018-01-03T14:29:49.100Z,96442.07
2018-01-03T14:32:17.254Z,96449.20
2018-01-03T14:34:44.830Z,96449.90
2018-01-03T14:37:12.387Z,96468.73
2018-01-03T14:48:14.689Z,96473.04
2018-01-03T14:50:42.164Z,96484.46
2018-01-03T14:53:09.879Z,96474.75
2018-01-03T14:55:37.442Z,96486.77
2018-01-03T14:58:06.385Z,96484.92
2018-01-03T15:00:34.532Z,96496.66
2018-01-03T15:03:02.244Z,96490.48
2018-01-03T15:05:29.988Z,96486.27
2018-01-03T15:07:58.130Z,96477.56
2018-01-03T15:10:25.715Z,96487.23
2018-01-03T15:12:53.253Z,96508.25
2018-01-03T15:15:23.833Z,96508.22
2018-01-03T15:17:56.482Z,96533.09
2018-01-03T15:20:39.505Z,96521.31
2018-01-03T15:23:09.501Z,96537.23
2018-01-03T15:25:38.447Z,96533.95
2018-01-03T15:28:06.016Z,96535.00
2018-01-03T15:30:33.583Z,96536.81
2018-01-03T15:33:01.197Z,96538.31
2018-01-03T15:35:28.873Z,96545.47
2018-01-03T15:37:58.350Z,96547.05
2018-01-03T15:40:25.948Z,96544.97
2018-01-03T15:45:28.561Z,96544.38
2018-01-03T15:47:58.128Z,96536.48
2018-01-03T15:50:25.916Z,96549.30
2018-01-03T15:52:54.238Z,96551.75
2018-01-03T15:55:22.672Z,96551.34
2018-01-03T15:57:50.396Z,96567.52
2018-01-03T16:00:17.985Z,96565.03
2018-01-03T16:02:45.688Z,96555.10
2018-01-03T16:05:13.984Z,96557.37
2018-01-03T16:07:41.605Z,96552.83
2018-01-03T16:10:11.734Z,96552.35
2018-01-03T16:12:42.244Z,96489.17
2018-01-03T16:15:11.702Z,96562.14
2018-01-03T16:17:40.617Z,96563.72
2018-01-03T16:20:08.215Z,96585.53
2018-01-03T16:22:37.458Z,96607.17
2018-01-03T16:25:05.886Z,96604.64
2018-01-03T16:27:33.737Z,96605.50
2018-01-03T16:30:01.534Z,96612.11
2018-01-03T16:32:30.365Z,96615.07
2018-01-03T16:34:58.007Z,96610.12
2018-01-03T16:37:25.961Z,96601.77
2018-01-03T16:39:54.091Z,96609.95
2018-01-03T16:42:21.694Z,96624.66
2018-01-03T16:44:51.160Z,96620.32
2018-01-03T16:47:19.075Z,96624.22
2018-01-03T16:49:46.798Z,96628.17
2018-01-03T16:52:19.960Z,96628.09
2018-01-03T16:54:47.520Z,96631.59
2018-01-03T16:57:14.998Z,96628.09
2018-01-03T16:59:42.459Z,96629.59
2018-01-03T17:02:10.560Z,96627.65
2018-01-03T17:04:38.270Z,96622.11
2018-01-03T17:07:06.592Z,96642.36
2018-01-03T17:09:34.024Z,96646.77
2018-01-03T17:12:01.572Z,96644.83
2018-01-03T17:14:29.074Z,96646.27
2018-01-03T17:16:56.652Z,96650.73
2018-01-03T17:19:24.114Z,96657.52
2018-01-03T17:21:51.604Z,96658.45
2018-01-03T17:24:19.140Z,96664.41
2018-01-03T17:26:46.902Z,96647.41
2018-01-03T17:29:14.539Z,96609.69
2018-01-03T17:31:42.972Z,96629.95
2018-01-03T17:34:11.278Z,96632.33
2018-01-03T17:36:38.793Z,96622.51
2018-01-03T17:39:06.463Z,96638.16
2018-01-03T17:41:34.122Z,96644.55
2018-01-03T17:44:01.631Z,96656.14
2018-01-03T17:46:29.124Z,96630.84
2018-01-03T17:48:57.075Z,96633.70
2018-01-03T17:51:24.632Z,96636.12
2018-01-03T17:53:52.425Z,96635.59
2018-01-03T17:56:20.065Z,96639.05
2018-01-03T17:58:47.671Z,96635.73
2018-01-03T18:01:15.330Z,96639.16
2018-01-03T18:03:43.595Z,96647.14
2018-01-03T18:06:11.600Z,96647.07
2018-01-03T18:08:39.067Z,96641.80
2018-01-03T18:11:06.563Z,96649.34
2018-01-03T18:13:34.234Z,96652.81
2018-01-03T18:16:01.744Z,96655.82
2018-01-03T18:18:29.216Z,96664.09
2018-01-03T18:20:56.935Z,96653.91
2018-01-03T18:23:24.901Z,96654.48
2018-01-03T18:25:52.378Z,96642.30
2018-01-03T18:28:20.018Z,96644.94
2018-01-03T18:30:47.708Z,96649.50
2018-01-03T18:33:15.220Z,96645.45
2018-01-03T18:35:43.031Z,96638.34
2018-01-03T18:38:10.520Z,96636.23
2018-01-03T18:40:38.633Z,96628.65
2018-01-03T18:43:06.143Z,96647.87
2018-01-03T18:45:33.628Z,96631.41
2018-01-03T18:48:01.379Z,96640.39
2018-01-03T18:50:29.031Z,96655.56
2018-01-03T18:52:56.486Z,96641.75
2018-01-03T18:55:24.005Z,96649.63
2018-01-03T18:57:51.646Z,96656.61
2018-01-03T19:00:19.092Z,96649.13
2018-01-03T19:02:46.591Z,96636.22
2018-01-03T19:05:14.436Z,96639.58
2018-01-03T19:07:41.915Z,96650.57
2018-01-03T19:10:09.692Z,96644.68
2018-01-03T19:12:37.197Z,96646.05
2018-01-03T19:15:04.883Z,96642.19
2018-01-03T19:17:32.839Z,96641.52
2018-01-03T19:20:00.336Z,96646.39
2018-01-03T19:22:28.460Z,96649.83
2018-01-03T19:24:55.996Z,96645.98
2018-01-03T23:40:38.673Z,96684.84
2018-01-03T23:43:08.946Z,96675.93
2018-01-03T23:45:40.241Z,96673.95
2018-01-03T23:48:09.019Z,96675.42
2018-01-03T23:50:36.591Z,96673.52
2018-01-03T23:53:04.307Z,96669.31
2018-01-03T23:55:32.724Z,96681.16
2018-01-03T23:58:00.326Z,96664.73
